Time;durP1;ratioP1;P1;durP2;ratioP2;P2;SDS_P1;SDS_P2;PMS_P1;PMS_P2;Temp;Humidity;BMP_temperature;BMP_pressure;BME280_temperature;BME280_humidity;BME280_pressure;Samples;Min_cycle;Max_cycle;Signal;HPM_P1;HPM_P2
2022/06/06 00:00:48;;;;;;;0.00;0.00;;;16.30;99.90;;;;;;5019631;28;20048;-68
2022/06/06 00:03:18;;;;;;;0.00;0.00;;;16.20;99.90;;;;;;5019345;28;20504;-68
2022/06/06 00:05:47;;;;;;;0.00;0.00;;;16.20;99.90;;;;;;5034809;28;20140;-68
2022/06/06 00:08:14;;;;;;;0.00;0.00;;;16.20;99.90;;;;;;5023138;28;20076;-68
2022/06/06 00:10:44;;;;;;;0.00;0.00;;;16.30;99.90;;;;;;5023311;28;20052;-68
2022/06/06 00:13:13;;;;;;;0.00;0.00;;;16.10;99.90;;;;;;5022859;28;20195;-68
2022/06/06 00:15:39;;;;;;;0.00;0.00;;;16.20;99.90;;;;;;5023546;28;20050;-68
2022/06/06 00:18:05;;;;;;;0.00;0.00;;;16.20;99.90;;;;;;5022575;28;20037;-68
2022/06/06 00:20:31;;;;;;;0.00;0.00;;;16.30;99.90;;;;;;5022902;28;20049;-68
2022/06/06 00:22:59;;;;;;;0.00;0.00;;;16.20;99.90;;;;;;5022850;28;20073;-68
2022/06/06 00:25:24;;;;;;;0.00;0.00;;;16.20;99.90;;;;;;5023232;28;20416;-68
2022/06/06 00:27:50;;;;;;;0.00;0.00;;;16.20;99.90;;;;;;5023101;28;20057;-68
2022/06/06 00:30:16;;;;;;;0.00;0.00;;;16.10;99.90;;;;;;5022374;28;20050;-68
2022/06/06 00:35:27;;;;;;;0.00;0.00;;;16.10;99.90;;;;;;5023142;28;20073;-68
2022/06/06 00:37:52;;;;;;;0.00;0.00;;;16.00;99.90;;;;;;5022598;28;20142;-69
2022/06/06 00:40:21;;;;;;;0.00;0.00;;;16.10;99.90;;;;;;5023110;28;20511;-69
2022/06/06 00:42:47;;;;;;;0.00;0.00;;;16.10;99.90;;;;;;5022878;28;20556;-68
2022/06/06 00:45:19;;;;;;;0.00;0.00;;;16.10;99.90;;;;;;5024662;28;20129;-68
2022/06/06 00:47:49;;;;;;;0.00;0.00;;;16.10;99.90;;;;;;5028903;28;20120;-68
2022/06/06 00:50:19;;;;;;;0.00;0.00;;;16.00;99.90;;;;;;5023432;28;20095;-68
2022/06/06 00:52:49;;;;;;;0.10;0.05;;;16.00;99.90;;;;;;5022677;28;20045;-68
2022/06/06 00:55:21;;;;;;;0.52;0.15;;;15.80;99.90;;;;;;5023306;28;20506;-68
2022/06/06 00:57:53;;;;;;;0.73;0.20;;;15.70;99.90;;;;;;5023003;28;20053;-68
2022/06/06 01:00:21;;;;;;;0.43;0.40;;;15.70;99.90;;;;;;5021677;28;20045;-68
2022/06/06 01:02:50;;;;;;;0.00;0.00;;;15.70;99.90;;;;;;5021835;28;20053;-67
2022/06/06 01:05:17;;;;;;;0.00;0.00;;;15.60;99.90;;;;;;5022507;28;20385;-67
2022/06/06 01:07:43;;;;;;;0.00;0.00;;;15.60;99.90;;;;;;5022620;28;20077;-68
2022/06/06 01:10:09;;;;;;;0.38;0.25;;;15.50;99.90;;;;;;5044200;22;20095;-66
2022/06/06 01:12:36;;;;;;;0.75;0.20;;;15.40;99.90;;;;;;5041818;28;20127;-66
2022/06/06 01:15:07;;;;;;;0.32;0.32;;;15.30;99.90;;;;;;5041713;28;20045;-67
2022/06/06 01:17:38;;;;;;;0.10;0.10;;;15.40;99.90;;;;;;5021688;28;20095;-68
2022/06/06 01:20:26;;;;;;;0.43;0.00;;;15.30;99.90;;;;;;5020893;28;20049;-66
2022/06/06 01:23:43;;;;;;;0.00;0.00;;;15.20;99.90;;;;;;5022514;28;20056;-66
2022/06/06 01:26:30;;;;;;;0.00;0.00;;;15.10;99.90;;;;;;5021370;28;20712;-66
2022/06/06 01:29:26;;;;;;;0.20;0.10;;;15.10;99.90;;;;;;5021896;28;20615;-66
2022/06/06 01:32:00;;;;;;;0.10;0.10;;;15.00;99.90;;;;;;5021791;28;20091;-66
2022/06/06 01:34:34;;;;;;;0.43;0.30;;;15.00;99.90;;;;;;5021326;28;20045;-66
2022/06/06 01:37:00;;;;;;;0.00;0.00;;;15.00;99.90;;;;;;5021313;28;20574;-66
2022/06/06 01:39:28;;;;;;;0.00;0.00;;;15.00;99.90;;;;;;5021033;28;20060;-67
2022/06/06 01:42:03;;;;;;;0.10;0.10;;;14.90;99.90;;;;;;5021413;28;20053;-68
2022/06/06 01:44:52;;;;;;;0.00;0.00;;;14.80;99.90;;;;;;5024247;28;20133;-68
2022/06/06 01:48:01;;;;;;;0.00;0.00;;;15.00;99.90;;;;;;5029491;28;20049;-66
2022/06/06 01:50:29;;;;;;;0.10;0.00;;;14.90;99.90;;;;;;4982248;28;20045;-66
2022/06/06 01:53:05;;;;;;;0.10;0.10;;;14.90;99.90;;;;;;5017533;28;20072;-66
2022/06/06 01:55:34;;;;;;;0.00;0.00;;;14.80;99.90;;;;;;5021779;28;20067;-66
2022/06/06 01:58:02;;;;;;;0.00;0.00;;;14.90;99.90;;;;;;5021319;28;20103;-66
2022/06/06 02:00:31;;;;;;;0.63;0.63;;;14.80;99.90;;;;;;5021624;28;20045;-66
2022/06/06 02:02:57;;;;;;;0.00;0.00;;;14.80;99.90;;;;;;5021219;28;20046;-68
2022/06/06 02:05:22;;;;;;;0.00;0.00;;;14.80;99.90;;;;;;5020997;28;20392;-66
2022/06/06 02:07:48;;;;;;;0.70;0.30;;;14.70;99.90;;;;;;5021665;28;20143;-66
2022/06/06 02:10:16;;;;;;;0.00;0.00;;;14.80;99.90;;;;;;5021742;28;20057;-66
2022/06/06 02:12:43;;;;;;;0.10;0.00;;;14.70;99.90;;;;;;5021263;28;20087;-65
2022/06/06 02:15:11;;;;;;;0.10;0.00;;;14.80;99.90;;;;;;5021458;28;20041;-67
2022/06/06 02:17:37;;;;;;;0.00;0.00;;;14.70;99.90;;;;;;5020760;28;20048;-67
2022/06/06 02:20:04;;;;;;;0.35;0.10;;;14.80;99.90;;;;;;5021306;28;20053;-67
2022/06/06 02:22:31;;;;;;;0.20;0.20;;;14.60;99.90;;;;;;5035901;28;20041;-66
2022/06/06 02:24:58;;;;;;;0.00;0.00;;;14.60;99.90;;;;;;5021390;28;20160;-66
2022/06/06 02:27:23;;;;;;;0.00;0.00;;;14.60;99.90;;;;;;5021145;28;20042;-66
2022/06/06 02:29:49;;;;;;;0.17;0.17;;;14.70;99.90;;;;;;5020321;28;20888;-67
2022/06/06 02:32:15;;;;;;;0.08;0.08;;;14.60;99.90;;;;;;5021094;28;20029;-66
2022/06/06 02:34:41;;;;;;;0.00;0.00;;;14.70;99.90;;;;;;5021223;28;20045;-67
2022/06/06 02:37:06;;;;;;;0.00;0.00;;;14.50;99.90;;;;;;5019848;28;20050;-67
2022/06/06 02:39:32;;;;;;;0.08;0.08;;;14.50;99.90;;;;;;5020286;28;20071;-67
2022/06/06 02:41:58;;;;;;;0.32;0.30;;;14.40;99.90;;;;;;5021036;28;20046;-67
2022/06/06 02:44:24;;;;;;;0.00;0.00;;;14.40;99.90;;;;;;5022029;28;20064;-67
2022/06/06 02:46:50;;;;;;;0.00;0.00;;;14.40;99.90;;;;;;5029853;28;20159;-68
2022/06/06 02:49:16;;;;;;;0.00;0.00;;;14.50;99.90;;;;;;5020184;28;20073;-60
2022/06/06 02:51:43;;;;;;;0.00;0.00;;;14.30;99.90;;;;;;5021202;28;20042;-65
2022/06/06 02:54:08;;;;;;;0.00;0.00;;;14.30;99.90;;;;;;5021067;28;20096;-67
2022/06/06 02:56:35;;;;;;;0.10;0.10;;;14.30;99.90;;;;;;5020226;28;20079;-67
2022/06/06 02:59:04;;;;;;;0.10;0.10;;;14.30;99.90;;;;;;5020584;28;20046;-67
2022/06/06 03:01:30;;;;;;;0.00;0.00;;;14.30;99.90;;;;;;5018815;28;20398;-67
2022/06/06 03:03:56;;;;;;;0.10;0.10;;;14.30;99.90;;;;;;5019162;28;20128;-67
2022/06/06 03:06:40;;;;;;;0.10;0.10;;;14.30;99.90;;;;;;5020338;28;20125;-68
2022/06/06 03:09:24;;;;;;;0.20;0.20;;;14.20;99.90;;;;;;5020295;28;20053;-67
2022/06/06 03:12:07;;;;;;;0.08;0.08;;;14.20;99.90;;;;;;5020628;28;20085;-67
2022/06/06 03:15:07;;;;;;;0.00;0.00;;;14.10;99.90;;;;;;5020676;28;20644;-66
2022/06/06 03:21:14;;;;;;;0.00;0.00;;;14.00;99.90;;;;;;5020171;28;20238;-66
2022/06/06 03:23:54;;;;;;;0.00;0.00;;;14.00;99.90;;;;;;5020143;28;20045;-68
2022/06/06 03:26:38;;;;;;;0.10;0.10;;;14.00;99.90;;;;;;5020297;28;20045;-67
2022/06/06 03:29:21;;;;;;;0.10;0.10;;;14.20;99.90;;;;;;5020329;28;20049;-66
2022/06/06 03:32:05;;;;;;;0.00;0.00;;;14.10;99.90;;;;;;5019068;28;20046;-67
2022/06/06 03:34:40;;;;;;;0.10;0.10;;;14.00;99.90;;;;;;5020218;28;20060;-67
2022/06/06 03:37:21;;;;;;;;;;;14.00;99.90;;;;;;5020132;28;20057;-67
2022/06/06 03:40:11;;;;;;;0.00;0.00;;;14.00;99.90;;;;;;5019547;28;19921;-66
2022/06/06 03:43:14;;;;;;;0.10;0.10;;;14.00;99.90;;;;;;5018914;28;20111;-66
2022/06/06 03:45:49;;;;;;;0.05;0.05;;;13.80;99.90;;;;;;5026350;28;20064;-67
2022/06/06 03:48:18;;;;;;;0.20;0.20;;;13.80;99.90;;;;;;5021938;28;20042;-66
2022/06/06 03:51:07;;;;;;;0.10;0.10;;;14.00;99.90;;;;;;5020136;28;20049;-66
2022/06/06 03:54:11;;;;;;;0.00;0.00;;;14.00;99.90;;;;;;5019877;28;20119;-66
2022/06/06 03:57:14;;;;;;;0.00;0.00;;;13.90;99.90;;;;;;5018611;28;20064;-66
2022/06/06 03:59:42;;;;;;;0.00;0.00;;;13.90;99.90;;;;;;5018971;28;20050;-68
2022/06/06 04:02:11;;;;;;;0.00;0.00;;;13.90;99.90;;;;;;5019380;28;20400;-67
2022/06/06 04:04:38;;;;;;;0.00;0.00;;;13.90;99.90;;;;;;5018174;28;20049;-67
2022/06/06 04:07:04;;;;;;;0.00;0.00;;;13.90;99.90;;;;;;5019059;28;20050;-66
2022/06/06 04:09:32;;;;;;;0.00;0.00;;;13.90;99.90;;;;;;5019519;28;20057;-67
2022/06/06 04:12:34;;;;;;;0.00;0.00;;;14.00;99.90;;;;;;5019769;28;20721;-66
2022/06/06 04:15:20;;;;;;;0.00;0.00;;;13.90;99.90;;;;;;5019933;28;20045;-67
2022/06/06 04:18:10;;;;;;;0.00;0.00;;;14.00;99.90;;;;;;5018508;28;20050;-60
2022/06/06 04:21:11;;;;;;;0.00;0.00;;;13.90;99.90;;;;;;5019456;28;20045;-66
2022/06/06 04:23:52;;;;;;;0.00;0.00;;;13.90;99.90;;;;;;5019760;28;20049;-65
2022/06/06 04:26:20;;;;;;;0.00;0.00;;;13.90;99.90;;;;;;5019040;28;20068;-65
2022/06/06 04:29:26;;;;;;;0.00;0.00;;;13.90;99.90;;;;;;5019746;28;20146;-66
2022/06/06 04:32:09;;;;;;;0.00;0.00;;;14.00;99.90;;;;;;5018588;28;20088;-66
2022/06/06 04:34:43;;;;;;;0.00;0.00;;;14.00;99.90;;;;;;5019442;28;20053;-66
2022/06/06 04:37:39;;;;;;;0.10;0.10;;;13.90;99.90;;;;;;5019921;28;20042;-66
2022/06/06 04:40:35;;;;;;;0.00;0.00;;;13.80;99.90;;;;;;5032400;28;20091;-66
2022/06/06 04:43:43;;;;;;;0.10;0.05;;;14.00;99.90;;;;;;5019830;28;20144;-66
2022/06/06 04:46:53;;;;;;;0.13;0.03;;;13.90;99.90;;;;;;5025173;28;20049;-66
2022/06/06 04:49:20;;;;;;;0.22;0.08;;;13.80;99.90;;;;;;5014256;28;20140;-67
2022/06/06 04:51:47;;;;;;;0.00;0.00;;;13.90;99.90;;;;;;5020185;28;20060;-60
2022/06/06 04:54:19;;;;;;;0.20;0.10;;;13.80;99.90;;;;;;5023202;28;20045;-67
2022/06/06 04:56:47;;;;;;;0.00;0.00;;;13.70;99.90;;;;;;5023500;28;20171;-65
2022/06/06 04:59:14;;;;;;;0.65;0.03;;;13.80;99.90;;;;;;5023474;28;20049;-69
2022/06/06 05:01:41;;;;;;;1.85;0.47;;;13.80;99.90;;;;;;5021824;28;20044;-67
2022/06/06 05:04:06;;;;;;;0.00;0.00;;;13.80;99.90;;;;;;5022623;28;20042;-66
2022/06/06 05:06:53;;;;;;;0.05;0.05;;;13.70;99.90;;;;;;5023045;28;20546;-66
2022/06/06 05:09:25;;;;;;;0.00;0.00;;;13.70;99.90;;;;;;5022539;28;20053;-66
2022/06/06 05:11:59;;;;;;;0.45;0.35;;;13.70;99.90;;;;;;5022693;28;20081;-66
2022/06/06 05:14:52;;;;;;;0.20;0.15;;;13.70;99.90;;;;;;5021939;28;20053;-66
2022/06/06 05:17:44;;;;;;;0.00;0.00;;;13.60;99.90;;;;;;5021892;28;20493;-67
2022/06/06 05:20:09;;;;;;;0.00;0.00;;;13.70;99.90;;;;;;5022235;28;20053;-66
2022/06/06 05:22:47;;;;;;;0.00;0.00;;;13.50;99.90;;;;;;5022254;28;20295;-68
2022/06/06 05:25:21;;;;;;;0.10;0.10;;;13.60;99.90;;;;;;5021773;28;20116;-66
2022/06/06 05:28:10;;;;;;;0.00;0.00;;;13.50;99.90;;;;;;5022567;28;20038;-66
2022/06/06 05:30:56;;;;;;;0.30;0.30;;;13.60;99.90;;;;;;5022051;28;20156;-68
2022/06/06 05:33:37;;;;;;;0.00;0.00;;;13.60;99.90;;;;;;5021750;28;20400;-66
2022/06/06 05:36:35;;;;;;;0.00;0.00;;;13.60;99.90;;;;;;5021089;28;20105;-66
2022/06/06 05:39:34;;;;;;;0.00;0.00;;;13.60;99.90;;;;;;5021706;28;20124;-67
2022/06/06 05:42:17;;;;;;;0.03;0.03;;;13.50;99.90;;;;;;5016636;28;20136;-67
2022/06/06 05:44:52;;;;;;;0.17;0.10;;;13.50;99.90;;;;;;5024824;28;20139;-66
2022/06/06 05:47:20;;;;;;;0.00;0.00;;;13.50;99.90;;;;;;5029598;28;20037;-67
2022/06/06 05:50:03;;;;;;;0.75;0.43;;;13.50;99.90;;;;;;5021978;28;20098;-64
2022/06/06 05:52:43;;;;;;;0.00;0.00;;;13.50;99.90;;;;;;5022094;28;20159;-66
2022/06/06 05:55:34;;;;;;;1.52;0.20;;;13.60;99.90;;;;;;5022126;28;20088;-66
2022/06/06 05:58:27;;;;;;;0.30;0.30;;;13.50;99.90;;;;;;5021404;28;20110;-66
2022/06/06 06:01:19;;;;;;;0.52;0.10;;;13.40;99.90;;;;;;5021174;28;20750;-62
2022/06/06 06:03:47;;;;;;;0.00;0.00;;;13.50;99.90;;;;;;5009464;28;20867;-65
2022/06/06 06:06:22;;;;;;;1.10;1.02;;;13.50;99.90;;;;;;5022117;28;20045;-66
2022/06/06 06:09:05;;;;;;;0.10;0.10;;;13.40;99.90;;;;;;5020699;28;20045;-66
2022/06/06 06:12:01;;;;;;;0.28;0.28;;;13.50;99.90;;;;;;5021656;28;20049;-66
2022/06/06 06:14:47;;;;;;;0.10;0.10;;;13.50;99.90;;;;;;5021406;28;20049;-66
2022/06/06 06:17:17;;;;;;;0.10;0.10;;;13.50;99.90;;;;;;5020359;28;20057;-66
2022/06/06 06:19:53;;;;;;;0.55;0.55;;;13.50;99.90;;;;;;5020083;28;20533;-65
2022/06/06 06:22:21;;;;;;;0.80;0.47;;;13.60;99.90;;;;;;5021187;28;20056;-66
2022/06/06 06:24:49;;;;;;;0.98;0.30;;;13.50;99.90;;;;;;5019347;28;20045;-67
2022/06/06 06:27:16;;;;;;;0.30;0.30;;;13.60;99.90;;;;;;5021655;28;20432;-66
2022/06/06 06:29:42;;;;;;;0.20;0.20;;;13.60;99.90;;;;;;5020352;28;20417;-66
2022/06/06 06:32:23;;;;;;;0.15;0.10;;;13.60;99.90;;;;;;5020492;28;20060;-66
2022/06/06 06:35:19;;;;;;;0.05;0.05;;;13.60;99.90;;;;;;5021198;28;20150;-66
2022/06/06 06:38:00;;;;;;;0.00;0.00;;;13.60;99.90;;;;;;5020950;28;20135;-60
2022/06/06 06:40:50;;;;;;;0.55;0.20;;;13.60;99.90;;;;;;5021000;28;20295;-67
2022/06/06 06:43:56;;;;;;;0.00;0.00;;;13.70;99.90;;;;;;5019735;28;20046;-66
2022/06/06 06:46:32;;;;;;;0.00;0.00;;;13.70;99.90;;;;;;5031096;28;20428;-69
2022/06/06 06:49:21;;;;;;;0.10;0.10;;;13.70;99.90;;;;;;5020895;28;20052;-66
2022/06/06 06:52:05;;;;;;;0.10;0.10;;;13.70;99.90;;;;;;5010198;28;20056;-66
2022/06/06 06:54:46;;;;;;;0.53;0.20;;;13.70;99.90;;;;;;5020814;28;20045;-67
2022/06/06 06:57:39;;;;;;;0.00;0.00;;;13.70;99.90;;;;;;5021461;28;20041;-67
2022/06/06 07:00:21;;;;;;;0.00;0.00;;;13.80;99.90;;;;;;5019890;28;20085;-67
2022/06/06 07:08:34;;;;;;;0.30;0.20;;;13.90;99.90;;;;;;5019445;28;20338;-68
2022/06/06 07:11:23;;;;;;;0.08;0.08;;;13.90;99.90;;;;;;5020188;28;20054;-65
2022/06/06 07:14:08;;;;;;;0.10;0.10;;;13.90;99.90;;;;;;5019756;28;20041;-68
2022/06/06 07:16:36;;;;;;;0.10;0.10;;;14.00;99.90;;;;;;5018052;28;20060;-66
2022/06/06 07:19:07;;;;;;;2.17;0.30;;;13.90;99.90;;;;;;5020278;28;20412;-66
2022/06/06 07:21:34;;;;;;;0.17;0.17;;;13.90;99.90;;;;;;5019899;28;20067;-66
2022/06/06 07:24:07;;;;;;;0.10;0.10;;;13.90;99.90;;;;;;5020457;28;20463;-66
2022/06/06 07:26:38;;;;;;;0.00;0.00;;;13.90;99.90;;;;;;5020392;28;20131;-67
2022/06/06 07:29:08;;;;;;;0.30;0.10;;;14.00;99.90;;;;;;5020202;28;20041;-67
2022/06/06 07:31:37;;;;;;;0.08;0.08;;;14.20;99.90;;;;;;5019684;28;20050;-66
2022/06/06 07:34:24;;;;;;;0.10;0.10;;;14.40;99.90;;;;;;5018461;28;20493;-66
2022/06/06 07:37:07;;;;;;;0.52;0.13;;;14.70;99.90;;;;;;5020489;28;20061;-68
2022/06/06 07:39:55;;;;;;;0.55;0.35;;;15.00;99.90;;;;;;5019390;28;20045;-68
2022/06/06 07:42:42;;;;;;;0.00;0.00;;;15.30;99.90;;;;;;5019986;28;20729;-69
2022/06/06 07:45:29;;;;;;;0.57;0.57;;;15.60;99.90;;;;;;5023484;28;20053;-68
2022/06/06 07:48:22;;;;;;;0.10;0.10;;;15.90;99.90;;;;;;5023988;28;20049;-69
2022/06/06 07:51:06;;;;;;;0.00;0.00;;;16.10;99.90;;;;;;5019977;28;20129;-66
2022/06/06 07:53:41;;;;;;;1.08;0.30;;;16.30;99.90;;;;;;5019668;28;20038;-69
2022/06/06 07:56:29;;;;;;;0.00;0.00;;;16.10;99.90;;;;;;5019978;28;20483;-68
2022/06/06 07:59:37;;;;;;;0.10;0.10;;;16.00;99.90;;;;;;5019897;28;20045;-68
2022/06/06 08:02:33;;;;;;;0.15;0.10;;;15.80;99.90;;;;;;5018862;28;20045;-69
2022/06/06 08:05:10;;;;;;;0.10;0.10;;;15.80;99.90;;;;;;5019793;28;20150;-68
2022/06/06 08:07:49;;;;;;;0.15;0.15;;;15.80;99.90;;;;;;5019971;28;20744;-68
2022/06/06 08:10:24;;;;;;;0.00;0.00;;;15.80;99.90;;;;;;5020059;28;20064;-68
2022/06/06 08:12:52;;;;;;;0.00;0.00;;;15.80;99.90;;;;;;5019966;28;20104;-68
2022/06/06 08:15:36;;;;;;;0.00;0.00;;;15.70;99.90;;;;;;5019627;28;20056;-67
2022/06/06 08:18:25;;;;;;;0.10;0.10;;;15.60;99.90;;;;;;5019243;28;20041;-68
2022/06/06 08:21:34;;;;;;;0.00;0.00;;;15.80;99.90;;;;;;5019549;28;20045;-68
2022/06/06 08:24:02;;;;;;;0.00;0.00;;;16.00;99.90;;;;;;5033039;28;20049;-69
2022/06/06 08:26:28;;;;;;;0.15;0.15;;;16.00;99.90;;;;;;5038997;28;20049;-68
2022/06/06 08:28:55;;;;;;;0.00;0.00;;;16.00;99.90;;;;;;5043292;28;20067;-69
2022/06/06 08:31:21;;;;;;;0.03;0.03;;;16.20;99.90;;;;;;5042678;28;20120;-68
2022/06/06 08:33:47;;;;;;;0.43;0.10;;;16.30;99.90;;;;;;5037526;28;20121;-69
2022/06/06 08:36:40;;;;;;;2.13;0.30;;;16.40;99.90;;;;;;5022822;28;20041;-69
2022/06/06 08:39:21;;;;;;;0.00;0.00;;;16.00;99.90;;;;;;5023207;28;20045;-69
2022/06/06 08:42:10;;;;;;;0.00;0.00;;;16.00;99.90;;;;;;5026979;28;20114;-68
2022/06/06 08:45:08;;;;;;;0.10;0.10;;;16.20;99.90;;;;;;5038417;28;20225;-60
2022/06/06 08:47:54;;;;;;;0.00;0.00;;;16.20;99.90;;;;;;5034444;28;20047;-59
2022/06/06 08:50:59;;;;;;;0.00;0.00;;;16.20;99.90;;;;;;5042903;28;20403;-63
2022/06/06 08:53:30;;;;;;;0.10;0.10;;;16.10;99.90;;;;;;5042403;28;20517;-63
2022/06/06 08:56:05;;;;;;;0.30;0.30;;;16.00;99.90;;;;;;5042965;28;20049;-61
2022/06/06 08:58:50;;;;;;;0.00;0.00;;;15.80;99.90;;;;;;5039263;28;20045;-58
2022/06/06 09:01:54;;;;;;;0.43;0.43;;;15.70;99.90;;;;;;5033604;28;20068;-64
2022/06/06 09:04:35;;;;;;;0.20;0.10;;;15.80;99.90;;;;;;4998895;28;20468;-63
2022/06/06 09:07:37;;;;;;;0.60;0.38;;;16.20;99.90;;;;;;5021781;28;20474;-63
2022/06/06 09:10:03;;;;;;;0.03;0.03;;;16.60;99.90;;;;;;5021432;28;20076;-65
2022/06/06 09:12:53;;;;;;;0.00;0.00;;;17.00;99.90;;;;;;5020441;28;20054;-63
2022/06/06 09:15:33;;;;;;;0.75;0.55;;;17.00;99.90;;;;;;5029629;28;20052;-60
2022/06/06 09:18:08;;;;;;;0.10;0.10;;;17.10;99.90;;;;;;5029434;28;20050;-63
2022/06/06 09:21:00;;;;;;;;;;;17.20;99.90;;;;;;5021244;28;20049;-64
2022/06/06 09:23:56;;;;;;;0.25;0.25;;;16.90;99.90;;;;;;5021834;28;19925;-65
2022/06/06 09:26:40;;;;;;;0.00;0.00;;;17.10;99.90;;;;;;5040018;28;20103;-66
2022/06/06 09:29:27;;;;;;;0.10;0.10;;;17.50;99.90;;;;;;5040451;28;20048;-64
2022/06/06 09:32:26;;;;;;;0.10;0.10;;;17.80;99.90;;;;;;5039668;28;20136;-65
2022/06/06 09:35:16;;;;;;;0.00;0.00;;;17.40;99.90;;;;;;5039829;28;20044;-65
2022/06/06 09:37:59;;;;;;;0.57;0.43;;;17.20;99.90;;;;;;5040906;28;20084;-64
2022/06/06 09:40:39;;;;;;;0.00;0.00;;;17.20;99.90;;;;;;5039918;28;20041;-67
2022/06/06 09:43:23;;;;;;;0.00;0.00;;;17.50;99.90;;;;;;5022208;28;20041;-61
2022/06/06 09:45:58;;;;;;;0.00;0.00;;;17.60;99.90;;;;;;5027138;28;20060;-58
2022/06/06 09:48:48;;;;;;;0.38;0.05;;;17.90;99.90;;;;;;5020389;28;20408;-58
2022/06/06 09:51:17;;;;;;;0.00;0.00;;;17.50;99.90;;;;;;5020889;28;20075;-66
2022/06/06 09:53:43;;;;;;;0.10;0.10;;;17.80;99.90;;;;;;5031634;28;20925;-59
2022/06/06 09:59:52;;;;;;;0.00;0.00;;;17.50;99.90;;;;;;5020187;28;20124;-57
2022/06/06 10:02:55;;;;;;;0.03;0.03;;;17.70;99.90;;;;;;5019506;28;20037;-58
2022/06/06 10:05:39;;;;;;;0.00;0.00;;;18.10;99.90;;;;;;4987905;28;20050;-57
2022/06/06 10:08:42;;;;;;;0.00;0.00;;;18.20;99.90;;;;;;5019401;28;20095;-58
2022/06/06 10:11:32;;;;;;;0.05;0.00;;;18.30;99.90;;;;;;4982049;28;1123041;-57
2022/06/06 10:14:26;;;;;;;0.20;0.10;;;18.00;99.90;;;;;;5021178;28;20203;-57
2022/06/06 10:17:17;;;;;;;2.05;0.15;;;17.40;99.90;;;;;;5019918;28;20103;-57
2022/06/06 10:20:07;;;;;;;0.10;0.10;;;16.80;99.90;;;;;;5021061;28;20053;-58
2022/06/06 10:22:53;;;;;;;0.00;0.00;;;16.60;99.90;;;;;;5020540;28;20049;-59
2022/06/06 10:25:46;;;;;;;0.00;0.00;;;16.30;99.90;;;;;;5020006;28;20056;-59
2022/06/06 10:28:37;;;;;;;0.00;0.00;;;16.20;99.90;;;;;;5021240;28;20038;-58
2022/06/06 10:31:33;;;;;;;0.00;0.00;;;16.40;99.90;;;;;;5021563;28;20049;-67
2022/06/06 10:34:05;;;;;;;0.10;0.10;;;16.90;99.90;;;;;;5037850;28;20055;-58
2022/06/06 10:36:46;;;;;;;0.10;0.10;;;17.50;99.90;;;;;;5039411;28;20045;-59
2022/06/06 10:39:39;;;;;;;0.20;0.17;;;17.80;99.90;;;;;;5040012;28;20096;-59
2022/06/06 10:42:27;;;;;;;0.45;0.30;;;18.00;99.90;;;;;;5020122;28;20057;-61
2022/06/06 10:45:13;;;;;;;1.10;1.05;;;18.30;99.90;;;;;;5024487;28;20441;-58
2022/06/06 10:48:01;;;;;;;0.03;0.03;;;18.70;99.90;;;;;;5032126;28;20041;-58
2022/06/06 10:54:05;;;;;;;0.10;0.10;;;18.70;99.90;;;;;;5040410;28;20041;-57
2022/06/06 10:56:55;;;;;;;0.25;0.10;;;18.30;99.90;;;;;;5038135;28;20057;-57
2022/06/06 10:59:49;;;;;;;12.35;1.13;;;17.70;99.90;;;;;;5040588;28;20045;-62
2022/06/06 11:02:29;;;;;;;0.00;0.00;;;17.30;99.90;;;;;;5040179;28;20502;-65
2022/06/06 11:05:11;;;;;;;0.00;0.00;;;16.90;99.90;;;;;;5039951;28;20037;-59
2022/06/06 11:07:48;;;;;;;0.00;0.00;;;16.90;99.90;;;;;;5040784;28;20045;-59
2022/06/06 11:10:35;;;;;;;0.10;0.00;;;17.20;99.90;;;;;;5040059;28;20199;-64
2022/06/06 11:13:13;;;;;;;0.10;0.10;;;17.90;99.90;;;;;;5040539;28;20157;-50
2022/06/06 11:15:47;;;;;;;0.00;0.00;;;18.00;99.90;;;;;;5038559;28;20487;-51
2022/06/06 11:18:40;;;;;;;0.00;0.00;;;18.00;99.90;;;;;;5040888;28;20045;-55
2022/06/06 11:21:34;;;;;;;0.15;0.08;;;18.10;99.90;;;;;;5040581;28;20104;-60
2022/06/06 11:24:08;;;;;;;0.00;0.00;;;18.50;99.90;;;;;;5039647;28;20053;-56
2022/06/06 11:26:34;;;;;;;0.00;0.00;;;18.30;99.90;;;;;;5040297;28;20052;-62
2022/06/06 11:29:15;;;;;;;0.65;0.65;;;18.40;99.90;;;;;;5040290;28;20484;-58
2022/06/06 11:31:50;;;;;;;0.00;0.00;;;18.50;99.90;;;;;;5039552;28;20041;-58
2022/06/06 11:34:47;;;;;;;0.30;0.10;;;18.10;99.90;;;;;;5038689;28;20053;-58
2022/06/06 11:37:13;;;;;;;0.20;0.17;;;18.50;99.90;;;;;;5040608;28;20048;-58
2022/06/06 11:40:08;;;;;;;0.30;0.08;;;18.50;99.90;;;;;;5039690;28;20051;-57
2022/06/06 11:42:52;;;;;;;0.00;0.00;;;18.10;99.90;;;;;;5039298;28;20060;-57
2022/06/06 11:45:37;;;;;;;0.00;0.00;;;17.80;99.90;;;;;;5031058;28;20041;-58
2022/06/06 11:48:15;;;;;;;0.05;0.05;;;18.00;99.90;;;;;;5023819;28;20050;-64
2022/06/06 11:51:02;;;;;;;0.05;0.05;;;18.20;99.90;;;;;;5018973;28;20107;-58
2022/06/06 11:53:58;;;;;;;0.00;0.00;;;17.80;99.90;;;;;;5019838;28;20101;-55
2022/06/06 11:56:27;;;;;;;0.00;0.00;;;17.90;99.90;;;;;;5035258;28;20532;-53
2022/06/06 11:59:34;;;;;;;0.52;0.20;;;18.20;99.90;;;;;;5020112;28;20041;-64
2022/06/06 12:02:21;;;;;;;0.38;0.38;;;18.30;99.90;;;;;;5020767;28;20385;-60
2022/06/06 12:04:56;;;;;;;0.10;0.03;;;18.20;99.90;;;;;;5023105;28;20053;-59
2022/06/06 12:07:45;;;;;;;0.00;0.00;;;18.20;99.90;;;;;;5024109;28;20042;-60
2022/06/06 12:10:31;;;;;;;0.00;0.00;;;18.40;99.90;;;;;;5023927;28;20148;-59
2022/06/06 12:13:02;;;;;;;0.00;0.00;;;18.30;99.90;;;;;;5023497;28;20050;-59
2022/06/06 12:16:00;;;;;;;0.00;0.00;;;18.20;99.90;;;;;;5020565;28;20053;-59
2022/06/06 12:18:54;;;;;;;0.00;0.00;;;18.30;99.90;;;;;;5023812;28;20059;-59
2022/06/06 12:21:38;;;;;;;0.00;0.00;;;18.50;99.90;;;;;;5031781;28;20053;-58
2022/06/06 12:24:33;;;;;;;0.17;0.17;;;18.40;99.90;;;;;;5028544;28;20482;-59
2022/06/06 12:27:12;;;;;;;0.20;0.10;;;18.70;99.90;;;;;;5029574;28;20536;-60
2022/06/06 12:29:53;;;;;;;0.00;0.00;;;18.70;99.90;;;;;;5037636;28;20077;-59
2022/06/06 12:32:44;;;;;;;0.10;0.10;;;19.00;99.90;;;;;;5021898;28;20673;-60
2022/06/06 12:35:18;;;;;;;0.22;0.03;;;19.10;99.90;;;;;;5023133;28;20164;-60
2022/06/06 12:38:07;;;;;;;0.15;0.00;;;19.10;99.90;;;;;;5022023;28;20049;-60
2022/06/06 12:40:51;;;;;;;0.13;0.13;;;18.80;99.90;;;;;;5022289;28;20056;-60
2022/06/06 12:43:23;;;;;;;0.10;0.05;;;18.60;99.90;;;;;;5021599;28;20500;-59
2022/06/06 12:46:07;;;;;;;0.43;0.22;;;18.40;99.90;;;;;;5030042;28;20080;-59
2022/06/06 12:48:38;;;;;;;0.00;0.00;;;18.10;99.90;;;;;;5021295;28;20045;-59
2022/06/06 12:51:18;;;;;;;0.10;0.10;;;18.10;99.90;;;;;;5022514;28;20057;-60
2022/06/06 12:54:06;;;;;;;0.00;0.00;;;18.10;99.90;;;;;;5022406;28;20654;-59
2022/06/06 12:56:52;;;;;;;0.00;0.00;;;18.20;99.90;;;;;;5021860;28;20049;-60
2022/06/06 12:59:24;;;;;;;0.00;0.00;;;18.30;99.90;;;;;;5021059;28;20045;-60
2022/06/06 13:02:27;;;;;;;0.00;0.00;;;18.00;99.90;;;;;;5021153;28;20136;-60
2022/06/06 13:04:58;;;;;;;0.00;0.00;;;18.20;99.90;;;;;;5022128;28;20060;-60
2022/06/06 13:07:33;;;;;;;0.00;0.00;;;18.40;99.90;;;;;;5021937;28;20057;-60
2022/06/06 13:10:17;;;;;;;0.00;0.00;;;18.40;99.90;;;;;;5022708;28;20053;-59
2022/06/06 13:12:43;;;;;;;0.00;0.00;;;18.60;99.90;;;;;;5027439;28;20678;-59
2022/06/06 13:15:36;;;;;;;0.00;0.00;;;18.30;99.90;;;;;;5027402;28;20056;-61
2022/06/06 13:18:22;;;;;;;0.08;0.08;;;18.40;99.90;;;;;;5027349;28;20179;-59
2022/06/06 13:21:06;;;;;;;0.05;0.05;;;18.30;99.90;;;;;;5027376;28;20061;-60
2022/06/06 13:23:38;;;;;;;;;;;18.20;99.90;;;;;;5027302;28;20435;-60
2022/06/06 13:26:38;;;;;;;0.00;0.00;;;18.10;99.90;;;;;;5025683;28;20415;-60
2022/06/06 13:29:05;;;;;;;0.00;0.00;;;17.90;99.90;;;;;;5023921;28;20056;-64
2022/06/06 13:31:54;;;;;;;0.10;0.10;;;17.80;99.90;;;;;;5025865;28;20034;-61
2022/06/06 13:34:25;;;;;;;0.05;0.00;;;17.70;99.90;;;;;;5027904;28;20071;-61
2022/06/06 13:37:16;;;;;;;0.00;0.00;;;17.60;99.90;;;;;;5027224;28;20049;-61
2022/06/06 13:40:09;;;;;;;0.00;0.00;;;17.60;99.90;;;;;;5027853;28;20064;-58
2022/06/06 13:42:35;;;;;;;0.00;0.00;;;17.70;99.90;;;;;;5026964;28;20583;-49
2022/06/06 13:45:01;;;;;;;0.00;0.00;;;17.60;99.90;;;;;;5026175;28;20052;-60
2022/06/06 13:47:53;;;;;;;0.25;0.25;;;17.80;99.90;;;;;;5023161;28;20071;-63
2022/06/06 13:50:29;;;;;;;0.03;0.03;;;17.90;99.90;;;;;;5027207;28;20498;-63
2022/06/06 13:52:54;;;;;;;0.10;0.05;;;18.10;99.90;;;;;;5027076;28;20049;-63
2022/06/06 13:55:29;;;;;;;0.00;0.00;;;18.00;99.90;;;;;;5027244;28;20146;-50
2022/06/06 13:58:08;;;;;;;0.25;0.10;;;18.00;99.90;;;;;;5027699;28;20044;-59
2022/06/06 14:01:12;;;;;;;0.00;0.00;;;18.00;99.90;;;;;;5027159;28;20045;-62
2022/06/06 14:04:16;;;;;;;0.05;0.05;;;18.10;99.90;;;;;;5026949;28;20140;-59
2022/06/06 14:06:44;;;;;;;0.00;0.00;;;17.80;99.90;;;;;;5026442;28;20037;-61
2022/06/06 14:09:16;;;;;;;0.80;0.32;;;17.70;99.90;;;;;;5026521;28;20053;-59
2022/06/06 14:12:12;;;;;;;0.00;0.00;;;17.60;99.90;;;;;;5027021;28;20416;-60